Time;durP1;ratioP1;P1;durP2;ratioP2;P2;SDS_P1;SDS_P2;PMS_P1;PMS_P2;Temp;Humidity;BMP_temperature;BMP_pressure;BME280_temperature;BME280_humidity;BME280_pressure;Samples;Min_cycle;Max_cycle;Signal;HPM_P1;HPM_P2
2023/06/02 04:54:48;;;;;;;10.50;10.20;;;13.00;99.90;;;;;;5006667;22;20294;-88
2023/06/02 04:57:53;;;;;;;;;;;;;;;;;;;;;
2023/06/02 05:58:25;;;;;;;10.20;9.90;;;14.30;99.90;;;;;;5064970;22;20241;-89
2023/06/02 06:46:29;;;;;;;9.63;9.32;;;15.80;99.90;;;;;;5064742;28;20262;-88
2023/06/02 06:48:59;;;;;;;9.25;8.95;;;15.70;99.90;;;;;;5068656;28;20321;-88
2023/06/02 06:51:27;;;;;;;9.55;9.25;;;15.80;99.90;;;;;;5066631;28;20247;-88
2023/06/02 06:54:01;;;;;;;9.45;9.15;;;15.90;99.90;;;;;;5065474;28;20234;-88
2023/06/02 06:56:43;;;;;;;9.57;9.27;;;16.00;99.90;;;;;;5066160;28;20297;-89
2023/06/02 06:59:13;;;;;;;9.50;9.20;;;16.10;99.90;;;;;;5065961;28;20281;-88
2023/06/02 07:01:49;;;;;;;9.85;9.55;;;16.10;99.90;;;;;;5068562;28;20258;-87
2023/06/02 07:04:21;;;;;;;9.25;8.95;;;16.10;99.90;;;;;;5071147;28;20226;-88
2023/06/02 07:06:50;;;;;;;9.00;8.80;;;16.10;99.90;;;;;;5069050;28;20233;-87
2023/06/02 07:09:19;;;;;;;9.40;9.10;;;16.10;99.90;;;;;;5069347;28;20242;-88
2023/06/02 07:14:54;;;;;;;9.27;8.98;;;16.20;99.90;;;;;;5064766;28;20234;-87
2023/06/02 07:22:57;;;;;;;9.10;8.90;;;16.20;99.90;;;;;;5043047;28;20228;-88
2023/06/02 07:25:27;;;;;;;9.10;8.90;;;16.30;99.90;;;;;;5045016;28;20231;-88
2023/06/02 07:27:56;;;;;;;9.40;9.10;;;16.40;99.90;;;;;;5047619;28;20231;-88
2023/06/02 07:34:07;;;;;;;;;;;;;;;;;;;;;
2023/06/02 07:45:59;;;;;;;9.60;9.30;;;16.50;99.90;;;;;;5045856;28;20300;-89
2023/06/02 07:49:05;;;;;;;;;;;;;;;;;;;;;
2023/06/02 07:51:35;;;;;;;9.88;9.57;;;16.80;99.90;;;;;;5058221;28;20233;-89
2023/06/02 07:54:08;;;;;;;9.95;9.65;;;16.90;99.90;;;;;;5045496;28;20235;-89
2023/06/02 07:56:40;;;;;;;9.75;9.45;;;17.10;99.90;;;;;;5049738;28;20236;-88
2023/06/02 07:59:18;;;;;;;;;;;;;;;;;;;;;
2023/06/02 08:04:35;;;;;;;9.75;9.45;;;17.10;99.90;;;;;;5044103;28;20263;-89
2023/06/02 08:07:04;;;;;;;9.90;9.60;;;17.20;99.90;;;;;;5053363;28;20244;-89
2023/06/02 08:09:34;;;;;;;9.93;9.63;;;17.30;99.90;;;;;;5055146;28;20219;-86
2023/06/02 08:12:02;;;;;;;9.90;9.60;;;17.50;99.90;;;;;;5050470;28;20231;-89
2023/06/02 08:14:32;;;;;;;10.20;9.90;;;17.40;99.90;;;;;;5044714;28;20235;-84
2023/06/02 08:17:02;;;;;;;10.38;10.07;;;17.40;99.90;;;;;;5045900;28;20219;-86
2023/06/02 08:19:31;;;;;;;10.50;10.20;;;17.40;99.90;;;;;;5044422;28;20231;-86
2023/06/02 08:22:00;;;;;;;10.25;9.95;;;17.50;99.90;;;;;;5044130;28;20235;-84
2023/06/02 08:28:09;;;;;;;10.32;10.02;;;17.70;99.90;;;;;;5043959;28;20219;-90
2023/06/02 08:33:36;;;;;;;10.15;9.85;;;18.40;99.90;;;;;;5043789;28;20262;-85
2023/06/02 08:38:52;;;;;;;9.90;9.60;;;18.60;99.90;;;;;;5047719;28;20242;-87
2023/06/02 08:41:26;;;;;;;10.18;9.88;;;18.80;99.90;;;;;;5046142;28;20231;-86
2023/06/02 08:44:04;;;;;;;10.13;9.82;;;19.00;99.90;;;;;;5045415;28;20254;-85
2023/06/02 08:46:37;;;;;;;10.38;10.07;;;19.20;99.90;;;;;;5046360;28;20227;-86
2023/06/02 08:49:19;;;;;;;;;;;;;;;;;;;;;
2023/06/02 08:55:09;;;;;;;10.40;10.10;;;19.60;99.90;;;;;;5051404;28;20226;-86
2023/06/02 08:58:03;;;;;;;10.30;10.00;;;19.80;99.90;;;;;;5051409;28;20233;-86
2023/06/02 09:01:22;;;;;;;10.30;10.00;;;19.60;99.90;;;;;;5050044;28;20231;-86
2023/06/02 09:07:31;;;;;;;10.60;10.30;;;20.20;99.90;;;;;;5019517;28;20212;-85
2023/06/02 09:21:41;;;;;;;10.50;10.20;;;20.90;99.90;;;;;;5014896;28;20231;-86
2023/06/02 09:24:47;;;;;;;;;;;;;;;;;;;;;
2023/06/02 09:32:14;;;;;;;;;;;;;;;;;;;;;
2023/06/02 09:40:04;;;;;;;;;;;;;;;;;;;;;
2023/06/02 09:42:28;;;;;;;10.30;10.00;;;21.80;99.90;;;;;;5040060;28;20236;-87
2023/06/02 09:48:22;;;;;;;10.15;9.85;;;21.40;99.90;;;;;;5062808;28;20248;-88
2023/06/02 09:54:37;;;;;;;10.20;9.90;;;22.10;99.90;;;;;;5069422;23;20235;-88
2023/06/02 09:57:21;;;;;;;10.13;9.82;;;22.40;99.90;;;;;;5038275;28;21041;-88
2023/06/02 10:00:55;;;;;;;10.20;9.90;;;22.40;99.90;;;;;;5046431;28;20231;-88
2023/06/02 10:03:53;;;;;;;10.50;10.20;;;22.80;99.90;;;;;;5047157;28;20241;-87
2023/06/02 10:07:33;;;;;;;;;;;;;;;;;;;;;
2023/06/02 10:14:00;;;;;;;10.20;9.90;;;23.00;99.90;;;;;;5040266;28;20231;-86
2023/06/02 10:16:50;;;;;;;9.98;9.68;;;23.20;99.90;;;;;;5027019;28;20228;-86
2023/06/02 10:20:12;;;;;;;;;;;;;;;;;;;;;
2023/06/02 10:27:22;;;;;;;;;;;;;;;;;;;;;
2023/06/02 10:30:49;;;;;;;10.10;9.80;;;23.20;99.90;;;;;;5013994;28;20232;-87
2023/06/02 10:34:00;;;;;;;10.25;9.95;;;22.60;99.90;;;;;;5014281;28;20236;-87
2023/06/02 10:37:19;;;;;;;10.55;10.25;;;23.10;99.90;;;;;;5020842;28;20220;-84
2023/06/02 10:52:19;;;;;;;;;;;;;;;;;;;;;
2023/06/02 10:55:29;;;;;;;10.40;10.10;;;24.70;99.90;;;;;;5028808;22;20228;-82
2023/06/02 10:57:58;;;;;;;10.27;9.98;;;24.80;99.90;;;;;;5029109;28;20236;-82
2023/06/02 11:00:53;;;;;;;10.10;9.80;;;25.00;99.90;;;;;;5040656;28;20251;-83
2023/06/02 11:03:39;;;;;;;9.85;9.55;;;25.20;99.90;;;;;;5038243;28;20230;-83
2023/06/02 11:06:27;;;;;;;9.60;9.30;;;25.10;99.90;;;;;;5021917;28;20254;-83
2023/06/02 11:08:55;;;;;;;9.93;9.63;;;24.60;99.90;;;;;;5021993;28;20236;-83
2023/06/02 11:11:59;;;;;;;9.85;9.55;;;24.60;99.90;;;;;;5022356;28;20342;-84
2023/06/02 11:14:31;;;;;;;10.00;9.70;;;24.60;99.90;;;;;;5022907;28;20262;-85
2023/06/02 11:17:35;;;;;;;9.60;9.30;;;24.60;99.90;;;;;;5023480;28;20339;-84
2023/06/02 11:20:05;;;;;;;9.90;9.60;;;25.00;99.90;;;;;;5027424;28;20239;-84
2023/06/02 11:22:34;;;;;;;10.20;9.90;;;25.10;99.90;;;;;;5046333;28;20250;-84
2023/06/02 11:25:03;;;;;;;10.13;9.82;;;25.20;99.90;;;;;;5046446;28;20239;-83
2023/06/02 11:27:49;;;;;;;9.68;9.38;;;25.30;99.90;;;;;;5043721;28;20219;-82
2023/06/02 11:30:19;;;;;;;9.77;9.48;;;25.40;99.90;;;;;;5042830;28;20263;-83
2023/06/02 11:32:51;;;;;;;9.88;9.57;;;25.50;99.90;;;;;;5044351;28;20234;-83
2023/06/02 11:35:27;;;;;;;9.80;9.50;;;25.60;99.90;;;;;;5042300;28;20224;-82
2023/06/02 11:40:51;;;;;;;9.43;9.13;;;25.50;99.90;;;;;;5042449;28;20223;-83
2023/06/02 11:46:11;;;;;;;9.68;9.38;;;25.50;99.90;;;;;;5043982;28;20258;-84
2023/06/02 11:48:40;;;;;;;9.77;9.48;;;25.70;99.90;;;;;;5044935;28;20318;-84
2023/06/02 12:04:56;;;;;;;9.90;9.60;;;26.30;99.90;;;;;;5222104;27;20615;-82
2023/06/02 12:07:31;;;;;;;10.18;9.88;;;26.60;99.90;;;;;;5202264;27;20225;-82
2023/06/02 12:10:00;;;;;;;10.20;9.90;;;26.80;99.90;;;;;;5203034;27;20222;-82
2023/06/02 12:12:29;;;;;;;9.90;9.60;;;27.00;99.90;;;;;;5201913;27;20230;-82
2023/06/02 12:15:14;;;;;;;9.88;9.57;;;27.20;99.90;;;;;;5203247;27;20244;-85
2023/06/02 12:17:51;;;;;;;10.07;9.77;;;27.20;99.90;;;;;;5202022;27;20236;-83
2023/06/02 12:20:20;;;;;;;10.07;9.77;;;27.30;99.90;;;;;;5201942;27;20213;-83
2023/06/02 12:22:55;;;;;;;10.00;9.70;;;27.30;99.90;;;;;;5201480;27;20240;-85
2023/06/02 12:25:27;;;;;;;10.55;10.25;;;27.50;99.90;;;;;;5201124;27;20241;-87
2023/06/02 12:28:15;;;;;;;10.60;10.30;;;27.50;99.90;;;;;;5200757;27;20222;-84
2023/06/02 12:31:26;;;;;;;10.50;10.20;;;27.80;99.90;;;;;;5196671;27;20227;-83
2023/06/02 12:34:06;;;;;;;10.32;10.02;;;28.10;99.90;;;;;;5108972;28;20286;-83
2023/06/02 12:36:37;;;;;;;10.50;10.20;;;28.40;99.90;;;;;;5185045;27;20265;-83
2023/06/02 12:39:06;;;;;;;10.30;10.00;;;28.70;99.90;;;;;;5194917;27;20227;-83
2023/06/02 12:41:36;;;;;;;11.00;10.70;;;28.10;99.90;;;;;;5189830;27;20429;-85
2023/06/02 12:44:04;;;;;;;10.50;10.20;;;27.90;99.90;;;;;;5200547;27;20236;-83
2023/06/02 12:46:32;;;;;;;10.50;10.20;;;28.10;99.90;;;;;;5203160;27;20252;-83
2023/06/02 12:49:03;;;;;;;10.18;9.88;;;28.20;99.90;;;;;;5192704;27;20245;-84
2023/06/02 12:51:31;;;;;;;10.30;10.00;;;28.20;99.90;;;;;;5180331;27;20235;-83
2023/06/02 12:54:02;;;;;;;10.40;10.10;;;28.40;99.90;;;;;;5200217;27;20220;-85
2023/06/02 12:56:29;;;;;;;10.18;9.88;;;28.80;99.90;;;;;;5202863;27;20233;-82
2023/06/02 12:58:58;;;;;;;10.05;9.75;;;28.90;99.90;;;;;;5182202;27;20230;-83
2023/06/02 13:01:27;;;;;;;10.07;9.77;;;29.00;99.90;;;;;;5181727;27;20315;-82
2023/06/02 13:03:57;;;;;;;10.13;9.82;;;29.00;99.90;;;;;;5193816;27;20280;-83
2023/06/02 13:06:26;;;;;;;10.02;9.73;;;28.60;99.90;;;;;;5193817;27;20232;-82
2023/06/02 13:08:56;;;;;;;10.25;9.95;;;28.60;99.90;;;;;;5180633;27;20227;-82
2023/06/02 13:11:46;;;;;;;10.20;9.90;;;28.50;99.90;;;;;;5166794;27;20227;-81
2023/06/02 13:14:17;;;;;;;10.18;9.88;;;28.60;99.90;;;;;;5166077;27;20370;-83
2023/06/02 13:16:45;;;;;;;10.10;9.80;;;28.60;99.90;;;;;;5173992;27;20250;-81
2023/06/02 13:19:13;;;;;;;10.00;9.70;;;29.00;99.90;;;;;;5174188;27;20227;-82
2023/06/02 13:21:41;;;;;;;9.73;9.43;;;29.30;99.90;;;;;;5166060;27;20219;-83
2023/06/02 13:24:10;;;;;;;9.75;9.45;;;29.50;99.90;;;;;;5176257;27;20269;-82
2023/06/02 13:27:07;;;;;;;9.57;9.27;;;29.30;99.90;;;;;;5177694;27;20231;-85
2023/06/02 13:30:13;;;;;;;9.90;9.60;;;29.50;99.90;;;;;;5174403;27;20284;-85
2023/06/02 13:32:40;;;;;;;9.57;9.27;;;29.50;99.90;;;;;;5165465;27;20287;-84
2023/06/02 13:35:09;;;;;;;9.38;9.07;;;29.30;99.90;;;;;;5166816;27;20288;-84
2023/06/02 13:37:38;;;;;;;9.80;9.50;;;29.30;99.90;;;;;;5168658;27;20272;-84
2023/06/02 13:40:08;;;;;;;9.70;9.40;;;29.30;99.90;;;;;;5175632;27;20315;-84
2023/06/02 13:42:37;;;;;;;9.63;9.32;;;29.40;99.90;;;;;;5175343;27;20239;-83
2023/06/02 13:45:19;;;;;;;9.90;9.60;;;29.60;99.90;;;;;;5184652;27;20247;-84
2023/06/02 13:47:48;;;;;;;9.95;9.65;;;29.70;99.90;;;;;;5171292;27;20300;-84
2023/06/02 13:50:15;;;;;;;9.98;9.68;;;29.70;99.90;;;;;;5182043;27;20222;-82
2023/06/02 13:52:44;;;;;;;9.70;9.40;;;29.70;99.90;;;;;;5178561;27;20243;-81
2023/06/02 13:55:15;;;;;;;9.38;9.07;;;29.70;99.90;;;;;;5180059;27;20243;-82
2023/06/02 13:57:45;;;;;;;9.73;9.43;;;29.70;99.90;;;;;;5187878;27;20285;-82
2023/06/02 14:00:24;;;;;;;9.80;9.50;;;29.70;99.90;;;;;;5186281;27;20341;-82
2023/06/02 14:02:52;;;;;;;9.80;9.50;;;29.80;99.90;;;;;;5186007;27;20256;-82
2023/06/02 14:05:20;;;;;;;9.70;9.40;;;30.20;99.90;;;;;;5183199;27;20227;-82
2023/06/02 14:07:49;;;;;;;10.57;10.27;;;30.10;99.90;;;;;;5181294;27;20333;-83
2023/06/02 14:10:21;;;;;;;10.30;10.00;;;29.50;99.90;;;;;;5187290;27;20234;-83
2023/06/02 14:12:50;;;;;;;10.38;10.07;;;29.40;99.90;;;;;;5185712;27;20302;-83
2023/06/02 14:18:07;;;;;;;10.40;10.10;;;29.10;99.90;;;;;;5175859;27;20220;-85
2023/06/02 14:20:37;;;;;;;10.70;10.40;;;28.70;99.90;;;;;;5179558;27;20257;-84
2023/06/02 14:23:06;;;;;;;10.20;9.90;;;29.10;99.90;;;;;;5181057;27;20231;-84
2023/06/02 14:25:35;;;;;;;10.27;9.98;;;29.50;99.90;;;;;;5171738;27;20215;-83
2023/06/02 14:28:04;;;;;;;10.48;10.18;;;29.60;99.90;;;;;;5176939;27;20258;-83
2023/06/02 14:30:43;;;;;;;10.40;10.10;;;29.80;99.90;;;;;;5181876;27;20249;-83
2023/06/02 14:33:12;;;;;;;10.63;10.32;;;29.70;99.90;;;;;;5174863;27;20219;-83
2023/06/02 14:35:42;;;;;;;10.45;10.15;;;30.00;99.90;;;;;;5175345;27;20306;-83
2023/06/02 14:38:11;;;;;;;10.52;10.23;;;30.10;99.90;;;;;;5179769;27;20291;-82
2023/06/02 14:40:41;;;;;;;10.60;10.30;;;30.20;99.90;;;;;;5166655;27;20228;-82
2023/06/02 14:43:10;;;;;;;10.40;10.10;;;30.50;99.90;;;;;;5177457;27;20230;-82
2023/06/02 14:45:48;;;;;;;10.30;10.00;;;30.60;99.90;;;;;;5171524;27;20287;-82
2023/06/02 14:48:18;;;;;;;10.32;10.02;;;30.60;99.90;;;;;;5173682;27;20224;-82
2023/06/02 14:50:49;;;;;;;10.38;10.07;;;30.50;99.90;;;;;;5164810;27;20285;-82
2023/06/02 14:53:17;;;;;;;10.00;9.70;;;30.40;99.90;;;;;;5164354;27;20304;-82
2023/06/02 14:55:47;;;;;;;10.30;10.00;;;30.20;99.90;;;;;;5180695;27;20214;-81
2023/06/02 14:58:16;;;;;;;9.93;9.63;;;30.20;99.90;;;;;;5171054;27;20231;-83
2023/06/02 15:03:33;;;;;;;10.25;9.95;;;29.80;99.90;;;;;;5171204;27;20233;-82
2023/06/02 15:06:02;;;;;;;10.50;10.20;;;29.50;99.90;;;;;;5176660;27;20276;-81
2023/06/02 15:08:31;;;;;;;10.90;10.60;;;29.60;99.90;;;;;;5192029;27;20220;-81
2023/06/02 15:11:00;;;;;;;10.60;10.30;;;29.50;99.90;;;;;;5183100;27;20271;-83
2023/06/02 15:13:30;;;;;;;10.75;10.45;;;29.50;99.90;;;;;;5184653;27;20233;-83
2023/06/02 15:16:10;;;;;;;10.55;10.25;;;29.20;99.90;;;;;;5178555;27;20266;-86
2023/06/02 15:18:38;;;;;;;10.35;10.05;;;29.20;99.90;;;;;;5164054;27;20233;-80
2023/06/02 15:21:07;;;;;;;10.68;10.38;;;29.10;99.90;;;;;;5165523;27;20227;-80
2023/06/02 15:23:36;;;;;;;10.73;10.43;;;29.30;99.90;;;;;;5168633;27;20227;-80
2023/06/02 15:26:05;;;;;;;10.57;10.27;;;29.40;99.90;;;;;;5185504;27;20218;-82
2023/06/02 15:28:35;;;;;;;10.57;10.27;;;29.40;99.90;;;;;;5185798;27;20966;-82
2023/06/02 15:31:04;;;;;;;10.45;10.15;;;29.30;99.90;;;;;;5186005;27;20214;-82
2023/06/02 15:33:45;;;;;;;10.30;10.00;;;29.30;99.90;;;;;;5185686;27;20317;-82
2023/06/02 15:36:13;;;;;;;9.80;9.50;;;29.10;99.90;;;;;;5185682;27;20218;-81
2023/06/02 15:38:42;;;;;;;9.95;9.65;;;29.20;99.90;;;;;;5186564;27;20237;-81
2023/06/02 15:41:11;;;;;;;9.80;9.50;;;29.40;99.90;;;;;;5186285;27;20227;-82
2023/06/02 15:43:41;;;;;;;10.07;9.77;;;29.50;99.90;;;;;;5185846;27;20277;-82
2023/06/02 15:46:10;;;;;;;10.02;9.73;;;29.50;99.90;;;;;;5191703;27;20215;-82
2023/06/02 15:48:48;;;;;;;10.00;9.70;;;29.40;99.90;;;;;;5198243;27;20243;-81
2023/06/02 15:51:16;;;;;;;10.00;9.70;;;29.50;99.90;;;;;;5197933;27;20255;-82
2023/06/02 15:53:49;;;;;;;10.00;9.70;;;29.60;99.90;;;;;;5197638;27;20222;-82
2023/06/02 15:56:18;;;;;;;9.95;9.65;;;29.50;99.90;;;;;;5187854;27;20233;-81
2023/06/02 15:58:45;;;;;;;9.75;9.45;;;29.60;99.90;;;;;;5187084;27;20231;-82
2023/06/02 16:01:15;;;;;;;10.20;9.90;;;29.60;99.90;;;;;;5186802;27;20231;-82
2023/06/02 16:03:54;;;;;;;10.30;10.00;;;29.80;99.90;;;;;;5192320;27;20222;-81
2023/06/02 16:06:23;;;;;;;10.05;9.75;;;29.70;99.90;;;;;;5188854;27;20219;-82
2023/06/02 16:08:53;;;;;;;10.02;9.73;;;29.50;99.90;;;;;;5186261;27;20251;-82
2023/06/02 16:11:22;;;;;;;10.32;10.02;;;29.30;99.90;;;;;;5185716;27;20228;-81
2023/06/02 16:13:55;;;;;;;10.38;10.07;;;29.20;99.90;;;;;;5185515;27;20322;-82
2023/06/02 16:16:22;;;;;;;10.40;10.10;;;29.00;99.90;;;;;;5184819;27;20234;-82
2023/06/02 16:21:39;;;;;;;10.15;9.85;;;29.00;99.90;;;;;;5184856;27;20230;-82
2023/06/02 16:24:08;;;;;;;10.15;9.85;;;29.10;99.90;;;;;;5184466;27;20241;-82
2023/06/02 16:26:38;;;;;;;10.15;9.85;;;29.10;99.90;;;;;;5185856;27;20247;-82
2023/06/02 16:29:07;;;;;;;10.30;10.00;;;29.20;99.90;;;;;;5184504;27;20230;-82
2023/06/02 16:31:37;;;;;;;10.02;9.73;;;29.00;99.90;;;;;;5184635;27;20321;-81
2023/06/02 16:36:53;;;;;;;10.02;9.73;;;28.60;99.90;;;;;;5184169;27;20262;-82
2023/06/02 16:39:23;;;;;;;10.00;9.70;;;28.50;99.90;;;;;;5186441;27;21090;-82
2023/06/02 16:41:52;;;;;;;10.20;9.90;;;28.40;99.90;;;;;;5189041;27;20223;-82
2023/06/02 16:44:23;;;;;;;10.27;9.98;;;28.20;99.90;;;;;;5187923;27;20244;-82
2023/06/02 16:46:51;;;;;;;9.82;9.52;;;28.10;99.90;;;;;;5188744;27;20223;-82
2023/06/02 16:49:24;;;;;;;9.85;9.55;;;28.00;99.90;;;;;;5188496;27;20239;-82
2023/06/02 16:51:51;;;;;;;9.77;9.48;;;27.80;99.90;;;;;;5188492;27;20247;-82
2023/06/02 23:47:47;;;;;;;9.95;9.65;;;14.80;99.90;;;;;;601910;22;20647;31
2023/06/02 23:50:21;;;;;;;9.95;9.65;;;14.80;99.90;;;;;;5041161;28;20242;-83
2023/06/02 23:52:52;;;;;;;10.13;9.82;;;14.80;99.90;;;;;;5058547;28;20231;-84
2023/06/02 23:55:23;;;;;;;9.90;9.60;;;14.80;99.90;;;;;;5055405;28;20218;-82
2023/06/02 23:57:58;;;;;;;9.80;9.50;;;14.80;99.90;;;;;;5064745;28;20222;-83
